sensor_id;sensor_type;location;lat;lon;timestamp;P1;durP1;ratioP1;P2;durP2;ratioP2
38264;SDS011;24062;47.480;8.768;2024-01-25T00:01:14;1.43;;;0.70;;
38264;SDS011;24062;47.480;8.768;2024-01-25T00:03:41;1.50;;;0.90;;
38264;SDS011;24062;47.480;8.768;2024-01-25T00:06:08;2.10;;;0.93;;
38264;SDS011;24062;47.480;8.768;2024-01-25T00:08:36;1.73;;;0.77;;
38264;SDS011;24062;47.480;8.768;2024-01-25T00:11:03;3.20;;;1.20;;
38264;SDS011;24062;47.480;8.768;2024-01-25T00:13:30;1.50;;;0.70;;
38264;SDS011;24062;47.480;8.768;2024-01-25T00:15:57;1.70;;;0.73;;
38264;SDS011;24062;47.480;8.768;2024-01-25T00:18:24;1.63;;;0.77;;
38264;SDS011;24062;47.480;8.768;2024-01-25T00:20:51;1.50;;;0.60;;
38264;SDS011;24062;47.480;8.768;2024-01-25T00:23:18;1.60;;;0.70;;
38264;SDS011;24062;47.480;8.768;2024-01-25T00:25:46;2.60;;;1.20;;
38264;SDS011;24062;47.480;8.768;2024-01-25T00:28:13;1.50;;;0.60;;
38264;SDS011;24062;47.480;8.768;2024-01-25T00:30:40;1.40;;;0.70;;
38264;SDS011;24062;47.480;8.768;2024-01-25T00:33:07;1.87;;;0.83;;
38264;SDS011;24062;47.480;8.768;2024-01-25T00:35:34;2.27;;;0.80;;
38264;SDS011;24062;47.480;8.768;2024-01-25T00:38:01;2.27;;;0.80;;
38264;SDS011;24062;47.480;8.768;2024-01-25T00:40:29;1.90;;;0.70;;
38264;SDS011;24062;47.480;8.768;2024-01-25T00:42:57;3.70;;;0.83;;
38264;SDS011;24062;47.480;8.768;2024-01-25T00:45:25;2.10;;;0.93;;
38264;SDS011;24062;47.480;8.768;2024-01-25T00:47:52;2.43;;;0.80;;
38264;SDS011;24062;47.480;8.768;2024-01-25T00:50:19;1.50;;;0.70;;
38264;SDS011;24062;47.480;8.768;2024-01-25T00:52:49;1.40;;;0.53;;
38264;SDS011;24062;47.480;8.768;2024-01-25T00:55:16;2.40;;;0.70;;
38264;SDS011;24062;47.480;8.768;2024-01-25T00:57:44;1.80;;;0.70;;
38264;SDS011;24062;47.480;8.768;2024-01-25T01:00:13;1.80;;;0.60;;
38264;SDS011;24062;47.480;8.768;2024-01-25T01:02:42;1.50;;;0.70;;
38264;SDS011;24062;47.480;8.768;2024-01-25T01:05:10;1.60;;;0.70;;
38264;SDS011;24062;47.480;8.768;2024-01-25T01:07:38;1.53;;;0.70;;
38264;SDS011;24062;47.480;8.768;2024-01-25T01:10:06;1.67;;;0.60;;
38264;SDS011;24062;47.480;8.768;2024-01-25T01:12:34;1.50;;;0.70;;
38264;SDS011;24062;47.480;8.768;2024-01-25T01:15:01;1.77;;;0.83;;
38264;SDS011;24062;47.480;8.768;2024-01-25T01:17:30;1.80;;;0.60;;
38264;SDS011;24062;47.480;8.768;2024-01-25T01:19:57;1.70;;;0.80;;
38264;SDS011;24062;47.480;8.768;2024-01-25T01:22:23;1.77;;;0.60;;
38264;SDS011;24062;47.480;8.768;2024-01-25T01:24:50;1.30;;;0.60;;
38264;SDS011;24062;47.480;8.768;2024-01-25T01:27:17;1.73;;;0.80;;
38264;SDS011;24062;47.480;8.768;2024-01-25T01:29:45;1.40;;;0.50;;
38264;SDS011;24062;47.480;8.768;2024-01-25T01:32:12;1.40;;;0.60;;
38264;SDS011;24062;47.480;8.768;2024-01-25T01:34:40;1.63;;;0.70;;
38264;SDS011;24062;47.480;8.768;2024-01-25T01:37:07;2.00;;;0.70;;
38264;SDS011;24062;47.480;8.768;2024-01-25T01:39:34;1.97;;;0.73;;
38264;SDS011;24062;47.480;8.768;2024-01-25T01:42:01;1.70;;;0.70;;
38264;SDS011;24062;47.480;8.768;2024-01-25T01:44:28;4.07;;;0.60;;
38264;SDS011;24062;47.480;8.768;2024-01-25T01:46:55;1.87;;;0.80;;
38264;SDS011;24062;47.480;8.768;2024-01-25T01:49:22;1.40;;;0.60;;
38264;SDS011;24062;47.480;8.768;2024-01-25T01:51:51;1.80;;;0.70;;
38264;SDS011;24062;47.480;8.768;2024-01-25T01:54:18;2.47;;;0.60;;
38264;SDS011;24062;47.480;8.768;2024-01-25T01:56:45;1.70;;;0.80;;
38264;SDS011;24062;47.480;8.768;2024-01-25T01:59:12;1.77;;;0.50;;
38264;SDS011;24062;47.480;8.768;2024-01-25T02:01:40;1.60;;;0.60;;
38264;SDS011;24062;47.480;8.768;2024-01-25T02:04:07;1.70;;;0.60;;
38264;SDS011;24062;47.480;8.768;2024-01-25T02:06:34;2.33;;;0.70;;
38264;SDS011;24062;47.480;8.768;2024-01-25T02:09:02;1.90;;;0.70;;
38264;SDS011;24062;47.480;8.768;2024-01-25T02:11:30;1.40;;;0.60;;
38264;SDS011;24062;47.480;8.768;2024-01-25T02:13:57;1.60;;;0.60;;
38264;SDS011;24062;47.480;8.768;2024-01-25T02:16:23;1.40;;;0.60;;
38264;SDS011;24062;47.480;8.768;2024-01-25T02:18:50;1.33;;;0.63;;
38264;SDS011;24062;47.480;8.768;2024-01-25T02:21:20;1.40;;;0.60;;
38264;SDS011;24062;47.480;8.768;2024-01-25T02:23:49;1.40;;;0.60;;
38264;SDS011;24062;47.480;8.768;2024-01-25T02:26:16;2.50;;;0.50;;
38264;SDS011;24062;47.480;8.768;2024-01-25T02:28:43;3.30;;;0.60;;
38264;SDS011;24062;47.480;8.768;2024-01-25T02:31:10;1.40;;;0.60;;
38264;SDS011;24062;47.480;8.768;2024-01-25T02:33:37;1.37;;;0.50;;
38264;SDS011;24062;47.480;8.768;2024-01-25T02:36:04;1.70;;;0.67;;
38264;SDS011;24062;47.480;8.768;2024-01-25T02:38:31;1.30;;;0.57;;
38264;SDS011;24062;47.480;8.768;2024-01-25T02:40:59;1.40;;;0.60;;
38264;SDS011;24062;47.480;8.768;2024-01-25T02:43:26;1.40;;;0.50;;
38264;SDS011;24062;47.480;8.768;2024-01-25T02:45:53;1.40;;;0.50;;
38264;SDS011;24062;47.480;8.768;2024-01-25T02:48:20;2.00;;;0.60;;
38264;SDS011;24062;47.480;8.768;2024-01-25T02:50:47;1.70;;;0.60;;
38264;SDS011;24062;47.480;8.768;2024-01-25T02:53:14;1.60;;;0.60;;
38264;SDS011;24062;47.480;8.768;2024-01-25T02:55:40;1.30;;;0.40;;
38264;SDS011;24062;47.480;8.768;2024-01-25T02:58:09;1.53;;;0.50;;
38264;SDS011;24062;47.480;8.768;2024-01-25T03:00:35;2.07;;;0.77;;
38264;SDS011;24062;47.480;8.768;2024-01-25T03:03:02;1.43;;;0.50;;
38264;SDS011;24062;47.480;8.768;2024-01-25T03:05:30;1.50;;;0.50;;
38264;SDS011;24062;47.480;8.768;2024-01-25T03:07:56;1.73;;;0.50;;
38264;SDS011;24062;47.480;8.768;2024-01-25T03:10:24;1.50;;;0.60;;
38264;SDS011;24062;47.480;8.768;2024-01-25T03:12:51;1.40;;;0.60;;
38264;SDS011;24062;47.480;8.768;2024-01-25T03:15:20;1.90;;;0.50;;
38264;SDS011;24062;47.480;8.768;2024-01-25T03:17:46;1.57;;;0.60;;
38264;SDS011;24062;47.480;8.768;2024-01-25T03:20:13;1.23;;;0.43;;
38264;SDS011;24062;47.480;8.768;2024-01-25T03:22:40;1.40;;;0.50;;
38264;SDS011;24062;47.480;8.768;2024-01-25T03:25:07;1.20;;;0.40;;
38264;SDS011;24062;47.480;8.768;2024-01-25T03:27:36;1.30;;;0.50;;
38264;SDS011;24062;47.480;8.768;2024-01-25T03:30:03;1.40;;;0.60;;
38264;SDS011;24062;47.480;8.768;2024-01-25T03:32:32;1.40;;;0.40;;
38264;SDS011;24062;47.480;8.768;2024-01-25T03:34:59;1.40;;;0.50;;
38264;SDS011;24062;47.480;8.768;2024-01-25T03:37:26;1.40;;;0.60;;
38264;SDS011;24062;47.480;8.768;2024-01-25T03:39:53;1.97;;;0.50;;
38264;SDS011;24062;47.480;8.768;2024-01-25T03:42:20;1.30;;;0.50;;
38264;SDS011;24062;47.480;8.768;2024-01-25T03:44:47;1.30;;;0.50;;
38264;SDS011;24062;47.480;8.768;2024-01-25T03:47:14;1.33;;;0.57;;
38264;SDS011;24062;47.480;8.768;2024-01-25T03:49:42;1.30;;;0.57;;
38264;SDS011;24062;47.480;8.768;2024-01-25T03:52:09;1.23;;;0.50;;
38264;SDS011;24062;47.480;8.768;2024-01-25T03:54:36;1.70;;;0.50;;
38264;SDS011;24062;47.480;8.768;2024-01-25T03:57:03;1.60;;;0.70;;
38264;SDS011;24062;47.480;8.768;2024-01-25T03:59:30;2.27;;;0.47;;
38264;SDS011;24062;47.480;8.768;2024-01-25T04:01:57;1.30;;;0.50;;
38264;SDS011;24062;47.480;8.768;2024-01-25T04:04:24;1.83;;;0.60;;
38264;SDS011;24062;47.480;8.768;2024-01-25T04:06:52;1.60;;;0.50;;
38264;SDS011;24062;47.480;8.768;2024-01-25T04:09:19;1.37;;;0.50;;
38264;SDS011;24062;47.480;8.768;2024-01-25T04:11:46;1.30;;;0.40;;
38264;SDS011;24062;47.480;8.768;2024-01-25T04:14:13;1.30;;;0.40;;
38264;SDS011;24062;47.480;8.768;2024-01-25T04:16:40;1.37;;;0.50;;
38264;SDS011;24062;47.480;8.768;2024-01-25T04:19:07;1.40;;;0.53;;
38264;SDS011;24062;47.480;8.768;2024-01-25T04:21:37;1.27;;;0.40;;
38264;SDS011;24062;47.480;8.768;2024-01-25T04:24:05;1.40;;;0.50;;
38264;SDS011;24062;47.480;8.768;2024-01-25T04:26:32;1.30;;;0.40;;
38264;SDS011;24062;47.480;8.768;2024-01-25T04:28:59;1.20;;;0.40;;
38264;SDS011;24062;47.480;8.768;2024-01-25T04:31:26;1.40;;;0.60;;
38264;SDS011;24062;47.480;8.768;2024-01-25T04:33:53;1.33;;;0.50;;
38264;SDS011;24062;47.480;8.768;2024-01-25T04:36:20;1.30;;;0.50;;
38264;SDS011;24062;47.480;8.768;2024-01-25T04:38:47;1.37;;;0.50;;
38264;SDS011;24062;47.480;8.768;2024-01-25T04:41:15;1.30;;;0.50;;
38264;SDS011;24062;47.480;8.768;2024-01-25T04:43:42;1.33;;;0.50;;
38264;SDS011;24062;47.480;8.768;2024-01-25T04:46:09;1.60;;;0.60;;
38264;SDS011;24062;47.480;8.768;2024-01-25T04:48:35;1.30;;;0.50;;
38264;SDS011;24062;47.480;8.768;2024-01-25T04:51:03;1.23;;;0.43;;
38264;SDS011;24062;47.480;8.768;2024-01-25T04:53:30;1.20;;;0.40;;
38264;SDS011;24062;47.480;8.768;2024-01-25T04:55:57;1.17;;;0.47;;
38264;SDS011;24062;47.480;8.768;2024-01-25T04:58:26;1.27;;;0.40;;
38264;SDS011;24062;47.480;8.768;2024-01-25T05:00:53;1.60;;;0.50;;
38264;SDS011;24062;47.480;8.768;2024-01-25T05:03:20;1.20;;;0.40;;
38264;SDS011;24062;47.480;8.768;2024-01-25T05:05:47;1.10;;;0.40;;
38264;SDS011;24062;47.480;8.768;2024-01-25T05:08:14;2.03;;;0.43;;
38264;SDS011;24062;47.480;8.768;2024-01-25T05:10:41;1.20;;;0.40;;
38264;SDS011;24062;47.480;8.768;2024-01-25T05:13:08;1.30;;;0.50;;
38264;SDS011;24062;47.480;8.768;2024-01-25T05:15:37;1.13;;;0.40;;
38264;SDS011;24062;47.480;8.768;2024-01-25T05:18:04;1.20;;;0.40;;
38264;SDS011;24062;47.480;8.768;2024-01-25T05:20:31;1.17;;;0.40;;
38264;SDS011;24062;47.480;8.768;2024-01-25T05:22:59;1.27;;;0.40;;
38264;SDS011;24062;47.480;8.768;2024-01-25T05:25:26;1.30;;;0.50;;
38264;SDS011;24062;47.480;8.768;2024-01-25T05:27:53;1.30;;;0.50;;
38264;SDS011;24062;47.480;8.768;2024-01-25T05:30:20;1.20;;;0.40;;
38264;SDS011;24062;47.480;8.768;2024-01-25T05:32:48;1.30;;;0.50;;
38264;SDS011;24062;47.480;8.768;2024-01-25T05:35:15;1.40;;;0.43;;
38264;SDS011;24062;47.480;8.768;2024-01-25T05:37:43;1.30;;;0.50;;
38264;SDS011;24062;47.480;8.768;2024-01-25T05:40:10;2.20;;;0.50;;
38264;SDS011;24062;47.480;8.768;2024-01-25T05:42:37;1.47;;;0.50;;
38264;SDS011;24062;47.480;8.768;2024-01-25T05:45:05;1.37;;;0.50;;
38264;SDS011;24062;47.480;8.768;2024-01-25T05:47:33;1.97;;;0.43;;
38264;SDS011;24062;47.480;8.768;2024-01-25T05:50:02;1.40;;;0.43;;
38264;SDS011;24062;47.480;8.768;2024-01-25T05:52:29;1.30;;;0.40;;
38264;SDS011;24062;47.480;8.768;2024-01-25T05:54:56;1.20;;;0.40;;
38264;SDS011;24062;47.480;8.768;2024-01-25T05:57:23;1.47;;;0.57;;
38264;SDS011;24062;47.480;8.768;2024-01-25T05:59:50;1.20;;;0.40;;
38264;SDS011;24062;47.480;8.768;2024-01-25T06:02:17;1.17;;;0.40;;
38264;SDS011;24062;47.480;8.768;2024-01-25T06:04:44;2.20;;;0.40;;
38264;SDS011;24062;47.480;8.768;2024-01-25T06:07:12;1.40;;;0.40;;
38264;SDS011;24062;47.480;8.768;2024-01-25T06:09:39;1.23;;;0.43;;
38264;SDS011;24062;47.480;8.768;2024-01-25T06:12:06;1.83;;;0.50;;
38264;SDS011;24062;47.480;8.768;2024-01-25T06:14:33;1.87;;;0.47;;
38264;SDS011;24062;47.480;8.768;2024-01-25T06:17:00;1.43;;;0.50;;
38264;SDS011;24062;47.480;8.768;2024-01-25T06:19:28;1.20;;;0.40;;
38264;SDS011;24062;47.480;8.768;2024-01-25T06:21:55;1.10;;;0.40;;
38264;SDS011;24062;47.480;8.768;2024-01-25T06:24:23;1.30;;;0.40;;
38264;SDS011;24062;47.480;8.768;2024-01-25T06:26:50;1.30;;;0.40;;
38264;SDS011;24062;47.480;8.768;2024-01-25T06:29:17;1.83;;;0.50;;
38264;SDS011;24062;47.480;8.768;2024-01-25T06:31:43;1.30;;;0.40;;
38264;SDS011;24062;47.480;8.768;2024-01-25T06:34:11;1.20;;;0.40;;
38264;SDS011;24062;47.480;8.768;2024-01-25T06:36:38;1.43;;;0.50;;
38264;SDS011;24062;47.480;8.768;2024-01-25T06:39:05;1.23;;;0.40;;
38264;SDS011;24062;47.480;8.768;2024-01-25T06:41:33;1.40;;;0.50;;
38264;SDS011;24062;47.480;8.768;2024-01-25T06:44:00;1.40;;;0.60;;
38264;SDS011;24062;47.480;8.768;2024-01-25T06:46:27;1.10;;;0.40;;
38264;SDS011;24062;47.480;8.768;2024-01-25T06:48:54;1.30;;;0.40;;
38264;SDS011;24062;47.480;8.768;2024-01-25T06:51:21;1.50;;;0.40;;
38264;SDS011;24062;47.480;8.768;2024-01-25T06:53:49;1.40;;;0.50;;
38264;SDS011;24062;47.480;8.768;2024-01-25T06:56:16;1.60;;;0.50;;
38264;SDS011;24062;47.480;8.768;2024-01-25T06:58:44;4.30;;;0.50;;
38264;SDS011;24062;47.480;8.768;2024-01-25T07:01:11;1.27;;;0.40;;
38264;SDS011;24062;47.480;8.768;2024-01-25T07:03:38;1.30;;;0.40;;
38264;SDS011;24062;47.480;8.768;2024-01-25T07:06:05;1.40;;;0.50;;
38264;SDS011;24062;47.480;8.768;2024-01-25T07:08:32;1.30;;;0.50;;
38264;SDS011;24062;47.480;8.768;2024-01-25T07:10:59;1.50;;;0.50;;
38264;SDS011;24062;47.480;8.768;2024-01-25T07:13:27;1.43;;;0.50;;
38264;SDS011;24062;47.480;8.768;2024-01-25T07:15:55;1.37;;;0.50;;
38264;SDS011;24062;47.480;8.768;2024-01-25T07:18:22;1.80;;;0.40;;
38264;SDS011;24062;47.480;8.768;2024-01-25T07:20:49;1.30;;;0.50;;
38264;SDS011;24062;47.480;8.768;2024-01-25T07:23:16;1.53;;;0.60;;
38264;SDS011;24062;47.480;8.768;2024-01-25T07:25:43;1.20;;;0.50;;
38264;SDS011;24062;47.480;8.768;2024-01-25T07:28:10;1.20;;;0.40;;
38264;SDS011;24062;47.480;8.768;2024-01-25T07:30:37;1.67;;;0.50;;
38264;SDS011;24062;47.480;8.768;2024-01-25T07:33:05;1.87;;;0.47;;
38264;SDS011;24062;47.480;8.768;2024-01-25T07:35:33;1.30;;;0.40;;
38264;SDS011;24062;47.480;8.768;2024-01-25T07:38:00;1.20;;;0.40;;
38264;SDS011;24062;47.480;8.768;2024-01-25T07:40:27;1.47;;;0.60;;
38264;SDS011;24062;47.480;8.768;2024-01-25T07:42:54;1.70;;;0.50;;
38264;SDS011;24062;47.480;8.768;2024-01-25T07:45:21;1.10;;;0.40;;
38264;SDS011;24062;47.480;8.768;2024-01-25T07:47:47;1.30;;;0.40;;
38264;SDS011;24062;47.480;8.768;2024-01-25T07:50:16;1.20;;;0.40;;
38264;SDS011;24062;47.480;8.768;2024-01-25T07:52:43;1.20;;;0.40;;
38264;SDS011;24062;47.480;8.768;2024-01-25T07:55:10;2.20;;;0.50;;
38264;SDS011;24062;47.480;8.768;2024-01-25T07:57:37;2.23;;;0.50;;
38264;SDS011;24062;47.480;8.768;2024-01-25T08:00:04;4.00;;;0.50;;
38264;SDS011;24062;47.480;8.768;2024-01-25T08:02:33;2.13;;;0.50;;
38264;SDS011;24062;47.480;8.768;2024-01-25T08:04:59;1.50;;;0.40;;
38264;SDS011;24062;47.480;8.768;2024-01-25T08:07:28;1.33;;;0.50;;
38264;SDS011;24062;47.480;8.768;2024-01-25T08:09:55;1.17;;;0.47;;
38264;SDS011;24062;47.480;8.768;2024-01-25T08:12:23;1.30;;;0.40;;
38264;SDS011;24062;47.480;8.768;2024-01-25T08:14:50;1.30;;;0.50;;
38264;SDS011;24062;47.480;8.768;2024-01-25T08:17:17;1.23;;;0.40;;
38264;SDS011;24062;47.480;8.768;2024-01-25T08:19:44;3.40;;;0.60;;
38264;SDS011;24062;47.480;8.768;2024-01-25T08:22:11;1.50;;;0.50;;
38264;SDS011;24062;47.480;8.768;2024-01-25T08:24:40;1.10;;;0.40;;
38264;SDS011;24062;47.480;8.768;2024-01-25T08:27:07;1.20;;;0.40;;
38264;SDS011;24062;47.480;8.768;2024-01-25T08:29:34;1.13;;;0.40;;
38264;SDS011;24062;47.480;8.768;2024-01-25T08:32:02;1.10;;;0.40;;
38264;SDS011;24062;47.480;8.768;2024-01-25T08:34:29;2.13;;;0.73;;
38264;SDS011;24062;47.480;8.768;2024-01-25T08:36:56;1.40;;;0.50;;
38264;SDS011;24062;47.480;8.768;2024-01-25T08:39:23;1.10;;;0.40;;
38264;SDS011;24062;47.480;8.768;2024-01-25T08:41:51;1.20;;;0.40;;
38264;SDS011;24062;47.480;8.768;2024-01-25T08:44:18;4.13;;;0.40;;
38264;SDS011;24062;47.480;8.768;2024-01-25T08:46:45;1.20;;;0.40;;
38264;SDS011;24062;47.480;8.768;2024-01-25T08:49:12;1.17;;;0.50;;
38264;SDS011;24062;47.480;8.768;2024-01-25T08:51:39;1.20;;;0.50;;
38264;SDS011;24062;47.480;8.768;2024-01-25T08:54:06;1.73;;;0.60;;
38264;SDS011;24062;47.480;8.768;2024-01-25T08:56:34;1.30;;;0.50;;
38264;SDS011;24062;47.480;8.768;2024-01-25T08:59:02;1.10;;;0.40;;
38264;SDS011;24062;47.480;8.768;2024-01-25T09:01:29;1.30;;;0.47;;
38264;SDS011;24062;47.480;8.768;2024-01-25T09:03:56;1.10;;;0.40;;
38264;SDS011;24062;47.480;8.768;2024-01-25T09:06:27;1.50;;;0.43;;
38264;SDS011;24062;47.480;8.768;2024-01-25T09:08:54;1.20;;;0.43;;
38264;SDS011;24062;47.480;8.768;2024-01-25T09:11:21;1.30;;;0.60;;
38264;SDS011;24062;47.480;8.768;2024-01-25T09:13:48;1.30;;;0.40;;
38264;SDS011;24062;47.480;8.768;2024-01-25T09:16:16;1.30;;;0.43;;
38264;SDS011;24062;47.480;8.768;2024-01-25T09:18:43;1.30;;;0.50;;
38264;SDS011;24062;47.480;8.768;2024-01-25T09:21:10;1.10;;;0.40;;
38264;SDS011;24062;47.480;8.768;2024-01-25T09:23:37;1.10;;;0.40;;
38264;SDS011;24062;47.480;8.768;2024-01-25T09:26:04;1.10;;;0.40;;
38264;SDS011;24062;47.480;8.768;2024-01-25T09:28:31;1.40;;;0.47;;
38264;SDS011;24062;47.480;8.768;2024-01-25T09:30:58;1.20;;;0.40;;
38264;SDS011;24062;47.480;8.768;2024-01-25T09:33:26;1.37;;;0.50;;
38264;SDS011;24062;47.480;8.768;2024-01-25T09:35:55;1.30;;;0.50;;
38264;SDS011;24062;47.480;8.768;2024-01-25T09:38:21;1.60;;;0.50;;
38264;SDS011;24062;47.480;8.768;2024-01-25T09:40:48;1.10;;;0.40;;
38264;SDS011;24062;47.480;8.768;2024-01-25T09:43:16;1.10;;;0.40;;
38264;SDS011;24062;47.480;8.768;2024-01-25T09:45:45;1.20;;;0.40;;
38264;SDS011;24062;47.480;8.768;2024-01-25T09:48:15;1.20;;;0.43;;
38264;SDS011;24062;47.480;8.768;2024-01-25T09:50:44;1.10;;;0.40;;
38264;SDS011;24062;47.480;8.768;2024-01-25T09:53:14;1.20;;;0.50;;
38264;SDS011;24062;47.480;8.768;2024-01-25T09:55:47;1.23;;;0.37;;
38264;SDS011;24062;47.480;8.768;2024-01-25T09:58:23;1.20;;;0.50;;
38264;SDS011;24062;47.480;8.768;2024-01-25T10:00:52;1.40;;;0.50;;
38264;SDS011;24062;47.480;8.768;2024-01-25T10:03:20;1.17;;;0.40;;
38264;SDS011;24062;47.480;8.768;2024-01-25T10:05:48;1.97;;;0.40;;
38264;SDS011;24062;47.480;8.768;2024-01-25T10:08:15;1.30;;;0.50;;
38264;SDS011;24062;47.480;8.768;2024-01-25T10:10:44;1.20;;;0.40;;
38264;SDS011;24062;47.480;8.768;2024-01-25T10:13:12;1.10;;;0.40;;
38264;SDS011;24062;47.480;8.768;2024-01-25T10:15:39;1.10;;;0.40;;
38264;SDS011;24062;47.480;8.768;2024-01-25T10:18:09;1.10;;;0.40;;
38264;SDS011;24062;47.480;8.768;2024-01-25T10:20:38;1.10;;;0.40;;
38264;SDS011;24062;47.480;8.768;2024-01-25T10:23:07;1.20;;;0.50;;
38264;SDS011;24062;47.480;8.768;2024-01-25T10:25:34;1.10;;;0.40;;
38264;SDS011;24062;47.480;8.768;2024-01-25T10:28:02;1.10;;;0.40;;
38264;SDS011;24062;47.480;8.768;2024-01-25T10:30:31;1.20;;;0.40;;
38264;SDS011;24062;47.480;8.768;2024-01-25T10:32:59;1.10;;;0.40;;
38264;SDS011;24062;47.480;8.768;2024-01-25T10:35:26;1.10;;;0.40;;
38264;SDS011;24062;47.480;8.768;2024-01-25T10:37:54;1.70;;;0.50;;
38264;SDS011;24062;47.480;8.768;2024-01-25T10:40:22;1.10;;;0.40;;
38264;SDS011;24062;47.480;8.768;2024-01-25T10:42:50;1.20;;;0.40;;
38264;SDS011;24062;47.480;8.768;2024-01-25T10:45:17;1.20;;;0.60;;
38264;SDS011;24062;47.480;8.768;2024-01-25T10:47:44;1.17;;;0.50;;
38264;SDS011;24062;47.480;8.768;2024-01-25T10:50:15;1.30;;;0.50;;
38264;SDS011;24062;47.480;8.768;2024-01-25T10:52:42;1.20;;;0.40;;
38264;SDS011;24062;47.480;8.768;2024-01-25T10:55:10;1.10;;;0.50;;
38264;SDS011;24062;47.480;8.768;2024-01-25T10:57:42;1.10;;;0.37;;
38264;SDS011;24062;47.480;8.768;2024-01-25T11:00:10;1.20;;;0.40;;
38264;SDS011;24062;47.480;8.768;2024-01-25T11:02:38;1.17;;;0.50;;
38264;SDS011;24062;47.480;8.768;2024-01-25T11:05:06;1.27;;;0.40;;
38264;SDS011;24062;47.480;8.768;2024-01-25T11:07:42;1.10;;;0.40;;
38264;SDS011;24062;47.480;8.768;2024-01-25T11:10:13;1.40;;;0.40;;
38264;SDS011;24062;47.480;8.768;2024-01-25T11:12:54;1.10;;;0.40;;
38264;SDS011;24062;47.480;8.768;2024-01-25T11:15:29;1.10;;;0.50;;
38264;SDS011;24062;47.480;8.768;2024-01-25T11:17:57;1.30;;;0.50;;
38264;SDS011;24062;47.480;8.768;2024-01-25T11:20:25;1.40;;;0.50;;
38264;SDS011;24062;47.480;8.768;2024-01-25T11:22:56;1.10;;;0.40;;
38264;SDS011;24062;47.480;8.768;2024-01-25T11:25:26;1.10;;;0.40;;
38264;SDS011;24062;47.480;8.768;2024-01-25T11:27:55;1.20;;;0.40;;
38264;SDS011;24062;47.480;8.768;2024-01-25T11:30:22;1.20;;;0.40;;
38264;SDS011;24062;47.480;8.768;2024-01-25T11:32:49;1.20;;;0.40;;
38264;SDS011;24062;47.480;8.768;2024-01-25T11:35:16;1.10;;;0.40;;
38264;SDS011;24062;47.480;8.768;2024-01-25T11:37:43;1.20;;;0.50;;
38264;SDS011;24062;47.480;8.768;2024-01-25T11:40:12;1.10;;;0.50;;
38264;SDS011;24062;47.480;8.768;2024-01-25T11:42:39;1.10;;;0.40;;
38264;SDS011;24062;47.480;8.768;2024-01-25T11:45:09;1.20;;;0.50;;
38264;SDS011;24062;47.480;8.768;2024-01-25T11:47:38;1.23;;;0.50;;
38264;SDS011;24062;47.480;8.768;2024-01-25T11:50:06;1.10;;;0.40;;
38264;SDS011;24062;47.480;8.768;2024-01-25T11:52:35;1.10;;;0.40;;
38264;SDS011;24062;47.480;8.768;2024-01-25T11:55:02;1.40;;;0.50;;
38264;SDS011;24062;47.480;8.768;2024-01-25T11:57:30;1.10;;;0.40;;
38264;SDS011;24062;47.480;8.768;2024-01-25T11:59:58;1.33;;;0.40;;
38264;SDS011;24062;47.480;8.768;2024-01-25T12:02:27;1.07;;;0.40;;
38264;SDS011;24062;47.480;8.768;2024-01-25T12:04:56;1.23;;;0.40;;
38264;SDS011;24062;47.480;8.768;2024-01-25T12:07:23;1.10;;;0.40;;
38264;SDS011;24062;47.480;8.768;2024-01-25T12:09:59;1.10;;;0.40;;
38264;SDS011;24062;47.480;8.768;2024-01-25T12:12:26;1.20;;;0.40;;
38264;SDS011;24062;47.480;8.768;2024-01-25T12:14:57;1.30;;;0.50;;
38264;SDS011;24062;47.480;8.768;2024-01-25T12:17:27;1.10;;;0.40;;
38264;SDS011;24062;47.480;8.768;2024-01-25T12:19:54;1.10;;;0.40;;
38264;SDS011;24062;47.480;8.768;2024-01-25T12:22:22;1.17;;;0.47;;
38264;SDS011;24062;47.480;8.768;2024-01-25T12:24:50;1.10;;;0.40;;
38264;SDS011;24062;47.480;8.768;2024-01-25T12:27:19;1.10;;;0.40;;
38264;SDS011;24062;47.480;8.768;2024-01-25T12:29:47;1.10;;;0.40;;
38264;SDS011;24062;47.480;8.768;2024-01-25T12:32:14;1.40;;;0.40;;
38264;SDS011;24062;47.480;8.768;2024-01-25T12:34:42;1.10;;;0.50;;
38264;SDS011;24062;47.480;8.768;2024-01-25T12:37:18;1.20;;;0.40;;
38264;SDS011;24062;47.480;8.768;2024-01-25T12:39:45;1.10;;;0.40;;
38264;SDS011;24062;47.480;8.768;2024-01-25T12:42:12;1.10;;;0.40;;
38264;SDS011;24062;47.480;8.768;2024-01-25T12:44:39;1.10;;;0.40;;
38264;SDS011;24062;47.480;8.768;2024-01-25T12:47:06;1.07;;;0.40;;
38264;SDS011;24062;47.480;8.768;2024-01-25T12:49:33;1.10;;;0.40;;
38264;SDS011;24062;47.480;8.768;2024-01-25T12:52:01;1.10;;;0.40;;
38264;SDS011;24062;47.480;8.768;2024-01-25T12:54:28;1.10;;;0.40;;
38264;SDS011;24062;47.480;8.768;2024-01-25T12:56:56;1.10;;;0.40;;
38264;SDS011;24062;47.480;8.768;2024-01-25T12:59:22;1.10;;;0.40;;
38264;SDS011;24062;47.480;8.768;2024-01-25T13:01:49;1.10;;;0.40;;
38264;SDS011;24062;47.480;8.768;2024-01-25T13:04:16;1.13;;;0.40;;
38264;SDS011;24062;47.480;8.768;2024-01-25T13:06:43;1.10;;;0.40;;
38264;SDS011;24062;47.480;8.768;2024-01-25T13:09:11;1.10;;;0.40;;
38264;SDS011;24062;47.480;8.768;2024-01-25T13:11:40;1.10;;;0.40;;
38264;SDS011;24062;47.480;8.768;2024-01-25T13:14:07;1.10;;;0.40;;
38264;SDS011;24062;47.480;8.768;2024-01-25T13:16:34;1.10;;;0.40;;
38264;SDS011;24062;47.480;8.768;2024-01-25T13:19:01;1.10;;;0.40;;
38264;SDS011;24062;47.480;8.768;2024-01-25T13:21:28;1.30;;;0.40;;
38264;SDS011;24062;47.480;8.768;2024-01-25T13:23:54;1.10;;;0.40;;
38264;SDS011;24062;47.480;8.768;2024-01-25T13:26:23;1.10;;;0.40;;
38264;SDS011;24062;47.480;8.768;2024-01-25T13:28:50;1.10;;;0.40;;
38264;SDS011;24062;47.480;8.768;2024-01-25T13:31:17;1.10;;;0.40;;
38264;SDS011;24062;47.480;8.768;2024-01-25T13:33:44;1.10;;;0.40;;
38264;SDS011;24062;47.480;8.768;2024-01-25T13:36:12;1.20;;;0.40;;
38264;SDS011;24062;47.480;8.768;2024-01-25T13:38:39;1.17;;;0.40;;
38264;SDS011;24062;47.480;8.768;2024-01-25T13:41:06;1.20;;;0.50;;
38264;SDS011;24062;47.480;8.768;2024-01-25T13:43:34;1.10;;;0.40;;
38264;SDS011;24062;47.480;8.768;2024-01-25T13:46:01;1.10;;;0.40;;
38264;SDS011;24062;47.480;8.768;2024-01-25T13:48:28;1.10;;;0.40;;
38264;SDS011;24062;47.480;8.768;2024-01-25T13:50:55;1.10;;;0.40;;
38264;SDS011;24062;47.480;8.768;2024-01-25T13:53:22;1.10;;;0.40;;
38264;SDS011;24062;47.480;8.768;2024-01-25T13:55:49;1.10;;;0.40;;
38264;SDS011;24062;47.480;8.768;2024-01-25T13:58:16;1.10;;;0.40;;
38264;SDS011;24062;47.480;8.768;2024-01-25T14:00:44;1.10;;;0.40;;
38264;SDS011;24062;47.480;8.768;2024-01-25T14:03:11;1.10;;;0.50;;
38264;SDS011;24062;47.480;8.768;2024-01-25T14:05:37;1.20;;;0.50;;
38264;SDS011;24062;47.480;8.768;2024-01-25T14:08:05;1.10;;;0.40;;
38264;SDS011;24062;47.480;8.768;2024-01-25T14:10:33;1.10;;;0.40;;
38264;SDS011;24062;47.480;8.768;2024-01-25T14:13:01;1.20;;;0.40;;
38264;SDS011;24062;47.480;8.768;2024-01-25T14:15:28;1.10;;;0.40;;
38264;SDS011;24062;47.480;8.768;2024-01-25T14:17:56;1.10;;;0.40;;
38264;SDS011;24062;47.480;8.768;2024-01-25T14:20:23;1.10;;;0.40;;
38264;SDS011;24062;47.480;8.768;2024-01-25T14:22:50;1.10;;;0.40;;
38264;SDS011;24062;47.480;8.768;2024-01-25T14:25:17;1.10;;;0.33;;
38264;SDS011;24062;47.480;8.768;2024-01-25T14:27:44;1.10;;;0.40;;
38264;SDS011;24062;47.480;8.768;2024-01-25T14:30:13;1.10;;;0.40;;
38264;SDS011;24062;47.480;8.768;2024-01-25T14:32:40;1.10;;;0.40;;
38264;SDS011;24062;47.480;8.768;2024-01-25T14:35:09;1.10;;;0.40;;
38264;SDS011;24062;47.480;8.768;2024-01-25T14:37:36;1.20;;;0.40;;
38264;SDS011;24062;47.480;8.768;2024-01-25T14:40:03;1.10;;;0.40;;
38264;SDS011;24062;47.480;8.768;2024-01-25T14:42:30;1.10;;;0.40;;
38264;SDS011;24062;47.480;8.768;2024-01-25T14:44:57;1.20;;;0.40;;
38264;SDS011;24062;47.480;8.768;2024-01-25T14:47:24;1.10;;;0.40;;
38264;SDS011;24062;47.480;8.768;2024-01-25T14:49:51;1.10;;;0.40;;